createdAt,value
2018-03-06T00:00:53.633Z,0
2018-03-06T00:01:54.233Z,0
2018-03-06T00:02:53.643Z,0
2018-03-06T00:03:53.670Z,0
2018-03-06T00:04:53.963Z,0
2018-03-06T00:05:54.835Z,0
2018-03-06T00:06:53.722Z,0
2018-03-06T00:07:53.718Z,0
2018-03-06T00:08:53.742Z,0
2018-03-06T00:09:55.525Z,0
2018-03-06T00:10:53.515Z,0
2018-03-06T00:11:53.779Z,0
2018-03-06T00:12:54.129Z,0
2018-03-06T00:13:54.043Z,0
2018-03-06T00:14:54.132Z,0
2018-03-06T00:15:53.845Z,0
2018-03-06T00:16:54.031Z,0
2018-03-06T00:17:55.995Z,0
2018-03-06T00:18:54.177Z,0
2018-03-06T00:19:54.209Z,0
2018-03-06T00:20:53.660Z,0
2018-03-06T00:21:55.110Z,0
2018-03-06T00:22:53.966Z,0
2018-03-06T00:23:54.317Z,0
2018-03-06T00:24:54.738Z,0
2018-03-06T00:25:53.742Z,0
2018-03-06T00:26:54.460Z,0
2018-03-06T00:27:53.823Z,0
2018-03-06T00:28:53.492Z,0
2018-03-06T00:29:54.330Z,0
2018-03-06T00:30:53.522Z,0
2018-03-06T00:31:55.904Z,0
2018-03-06T00:32:54.088Z,0
2018-03-06T00:33:54.389Z,0
2018-03-06T00:34:54.405Z,0
2018-03-06T00:35:54.830Z,0
2018-03-06T00:36:54.173Z,0
2018-03-06T00:37:54.162Z,0
2018-03-06T00:38:54.167Z,0
2018-03-06T00:39:56.006Z,0
2018-03-06T00:40:53.982Z,0
2018-03-06T00:41:54.505Z,0
2018-03-06T00:42:54.864Z,0
2018-03-06T00:43:54.032Z,0
2018-03-06T00:44:54.561Z,0
2018-03-06T00:45:56.192Z,0
2018-03-06T00:46:54.565Z,0
2018-03-06T00:47:54.598Z,0
2018-03-06T00:48:54.604Z,0
2018-03-06T00:49:55.948Z,0
2018-03-06T00:50:54.332Z,0
2018-03-06T00:51:54.353Z,0
2018-03-06T00:52:56.083Z,0
2018-03-06T00:53:54.381Z,0
2018-03-06T00:54:54.424Z,0
2018-03-06T00:55:54.146Z,0
2018-03-06T00:56:55.420Z,0
2018-03-06T00:57:54.760Z,0
2018-03-06T00:58:54.761Z,0
2018-03-06T00:59:57.014Z,0
2018-03-06T01:00:54.473Z,0
2018-03-06T01:01:54.259Z,0
2018-03-06T01:02:55.398Z,0
2018-03-06T01:03:55.497Z,0
2018-03-06T01:04:54.562Z,0
2018-03-06T01:05:54.841Z,0
2018-03-06T01:06:57.352Z,0
2018-03-06T01:07:54.928Z,0
2018-03-06T01:08:54.618Z,0
2018-03-06T01:09:54.342Z,0
2018-03-06T01:10:55.207Z,0
2018-03-06T01:11:54.949Z,0
2018-03-06T01:12:54.663Z,0
2018-03-06T01:13:55.733Z,0
2018-03-06T01:14:54.706Z,0
2018-03-06T01:15:54.740Z,0
2018-03-06T01:16:54.727Z,0
2018-03-06T01:17:55.276Z,0
2018-03-06T01:18:55.058Z,0
2018-03-06T01:19:54.743Z,0
2018-03-06T01:20:55.069Z,0
2018-03-06T01:21:57.492Z,0
2018-03-06T01:22:54.824Z,0
2018-03-06T01:23:54.817Z,0
2018-03-06T01:24:55.616Z,0
2018-03-06T01:25:55.666Z,0
2018-03-06T01:26:54.860Z,0
2018-03-06T01:27:54.881Z,0
2018-03-06T01:28:57.393Z,0
2018-03-06T01:29:54.926Z,0
2018-03-06T01:30:54.938Z,0
2018-03-06T01:31:57.518Z,0
2018-03-06T01:32:55.222Z,0
2018-03-06T01:33:54.976Z,0
2018-03-06T01:34:57.772Z,0
2018-03-06T01:35:54.974Z,0
2018-03-06T01:36:54.729Z,0
2018-03-06T01:37:55.020Z,0
2018-03-06T01:38:55.866Z,0
2018-03-06T01:39:55.060Z,0
2018-03-06T01:40:55.363Z,0
2018-03-06T01:41:57.401Z,0
2018-03-06T01:42:54.811Z,0
2018-03-06T01:43:55.390Z,0
2018-03-06T01:44:58.073Z,0
2018-03-06T01:45:55.431Z,0
2018-03-06T01:46:55.191Z,0
2018-03-06T01:47:56.116Z,0
2018-03-06T01:48:54.902Z,0
2018-03-06T01:49:55.202Z,0
2018-03-06T01:50:55.194Z,0
2018-03-06T01:51:57.649Z,0
2018-03-06T01:52:55.240Z,0
2018-03-06T01:53:54.993Z,0
2018-03-06T01:54:57.877Z,0
2018-03-06T01:55:55.579Z,0
2018-03-06T01:56:55.020Z,0
2018-03-06T01:57:56.045Z,0
2018-03-06T01:58:55.857Z,0
2018-03-06T01:59:55.410Z,0
2018-03-06T02:00:55.092Z,0
2018-03-06T02:01:57.919Z,0
2018-03-06T02:02:55.109Z,0
2018-03-06T02:03:55.684Z,0
2018-03-06T02:04:56.583Z,0
2018-03-06T02:05:56.613Z,0
2018-03-06T02:06:55.456Z,0
2018-03-06T02:07:55.474Z,0
2018-03-06T02:08:57.701Z,0
2018-03-06T02:09:55.502Z,0
2018-03-06T02:10:55.519Z,0
2018-03-06T02:11:56.174Z,0
2018-03-06T02:12:57.198Z,0
2018-03-06T02:13:55.263Z,0
2018-03-06T02:14:55.614Z,0
2018-03-06T02:15:56.200Z,0
2018-03-06T02:16:55.322Z,0
2018-03-06T02:17:55.634Z,0
2018-03-06T02:18:55.902Z,0
2018-03-06T02:19:57.366Z,0
2018-03-06T02:20:55.648Z,0
2018-03-06T02:21:55.680Z,0
2018-03-06T02:22:55.963Z,0
2018-03-06T02:23:57.093Z,0
2018-03-06T02:24:55.709Z,0
2018-03-06T02:25:55.714Z,0
2018-03-06T02:26:57.513Z,0
2018-03-06T02:27:55.470Z,0
2018-03-06T02:28:56.133Z,0
2018-03-06T02:29:55.825Z,0
2018-03-06T02:30:58.905Z,0
2018-03-06T02:31:56.100Z,0
2018-03-06T02:32:55.812Z,0
2018-03-06T02:33:56.134Z,0
2018-03-06T02:34:58.470Z,0
2018-03-06T02:35:56.142Z,0
2018-03-06T02:36:55.600Z,0
2018-03-06T02:37:56.171Z,0
2018-03-06T02:38:57.546Z,0
2018-03-06T02:39:55.926Z,0
2018-03-06T02:40:56.212Z,0
2018-03-06T02:41:57.381Z,0
2018-03-06T02:42:56.251Z,0
2018-03-06T02:43:56.262Z,0
2018-03-06T02:44:56.357Z,0
2018-03-06T02:45:56.260Z,0
2018-03-06T02:46:55.756Z,0
2018-03-06T02:47:56.341Z,0
2018-03-06T02:48:57.649Z,0
2018-03-06T02:49:56.328Z,0
2018-03-06T02:50:56.373Z,0
2018-03-06T02:51:56.079Z,0
2018-03-06T02:52:58.996Z,0
2018-03-06T02:53:56.122Z,0
2018-03-06T02:54:56.436Z,0
2018-03-06T02:55:56.799Z,0
2018-03-06T02:56:56.156Z,0
2018-03-06T02:57:56.462Z,0
2018-03-06T02:58:56.181Z,0
2018-03-06T02:59:57.783Z,0
2018-03-06T03:00:56.195Z,0
2018-03-06T03:01:56.697Z,0
2018-03-06T03:02:56.723Z,0
2018-03-06T03:03:55.998Z,0
2018-03-06T03:04:56.313Z,0
2018-03-06T03:05:56.577Z,0
2018-03-06T03:06:56.057Z,0
2018-03-06T03:07:56.039Z,0
2018-03-06T03:08:56.068Z,0
2018-03-06T03:09:56.621Z,0
2018-03-06T03:10:56.745Z,0
2018-03-06T03:11:56.385Z,0
2018-03-06T03:12:56.693Z,0
2018-03-06T03:13:56.404Z,0
2018-03-06T03:14:58.471Z,0
2018-03-06T03:15:56.163Z,0
2018-03-06T03:16:56.745Z,0
2018-03-06T03:17:57.164Z,0
2018-03-06T03:18:57.316Z,0
2018-03-06T03:19:56.483Z,0
2018-03-06T03:20:56.756Z,0
2018-03-06T03:21:58.493Z,0
2018-03-06T03:22:56.543Z,0
2018-03-06T03:23:56.821Z,0
2018-03-06T03:24:57.479Z,0
2018-03-06T03:25:56.295Z,0
2018-03-06T03:26:56.797Z,0
2018-03-06T03:27:56.905Z,0
2018-03-06T03:28:56.074Z,0
2018-03-06T03:29:56.950Z,0
2018-03-06T03:30:56.930Z,0
2018-03-06T03:31:58.157Z,0
2018-03-06T03:32:56.129Z,0
2018-03-06T03:33:56.684Z,0
2018-03-06T03:34:58.090Z,0
2018-03-06T03:35:56.967Z,0
2018-03-06T03:36:56.987Z,0
2018-03-06T03:37:58.160Z,0
2018-03-06T03:38:56.762Z,0
2018-03-06T03:39:57.038Z,0
2018-03-06T03:40:58.687Z,0
2018-03-06T03:41:56.801Z,0
2018-03-06T03:42:56.839Z,0
2018-03-06T03:43:58.561Z,0
2018-03-06T03:44:57.130Z,0
2018-03-06T03:45:57.133Z,0
2018-03-06T03:46:58.076Z,0
2018-03-06T03:47:58.113Z,0
2018-03-06T03:48:56.627Z,0
2018-03-06T03:49:57.177Z,0
2018-03-06T03:50:58.495Z,0
2018-03-06T03:51:57.216Z,0
2018-03-06T03:52:57.274Z,0
2018-03-06T03:53:59.837Z,0
2018-03-06T03:54:57.252Z,0
2018-03-06T03:55:57.261Z,0
2018-03-06T03:56:57.034Z,0
2018-03-06T03:57:57.781Z,0
2018-03-06T03:58:57.050Z,0
2018-03-06T03:59:57.327Z,0
2018-03-06T04:00:58.676Z,0
2018-03-06T04:01:57.368Z,0
2018-03-06T04:02:56.826Z,0
2018-03-06T04:04:00.071Z,0
2018-03-06T04:04:57.206Z,0
2018-03-06T04:05:56.591Z,0
2018-03-06T04:06:56.903Z,0
2018-03-06T04:07:57.172Z,0
2018-03-06T04:08:57.306Z,0
2018-03-06T04:09:59.006Z,0
2018-03-06T04:10:57.477Z,0
2018-03-06T04:11:57.231Z,0
2018-03-06T04:12:59.571Z,0
2018-03-06T04:13:57.244Z,0
2018-03-06T04:14:57.284Z,0
2018-03-06T04:15:58.571Z,0
2018-03-06T04:16:57.354Z,0
2018-03-06T04:17:57.042Z,0
2018-03-06T04:18:57.315Z,0
2018-03-06T04:19:59.000Z,0
2018-03-06T04:20:57.076Z,0
2018-03-06T04:21:57.364Z,0
2018-03-06T04:22:57.873Z,0
2018-03-06T04:23:57.382Z,0
2018-03-06T04:24:57.670Z,0
2018-03-06T04:25:58.293Z,0
2018-03-06T04:26:57.680Z,0
2018-03-06T04:27:57.155Z,0
2018-03-06T04:28:57.732Z,0
2018-03-06T04:29:58.250Z,0
2018-03-06T04:30:56.941Z,0
2018-03-06T04:31:57.805Z,0
2018-03-06T04:32:59.558Z,0
2018-03-06T04:33:57.518Z,0
2018-03-06T04:34:57.536Z,0
2018-03-06T04:35:58.770Z,0
2018-03-06T04:36:57.567Z,0
2018-03-06T04:37:57.853Z,0
2018-03-06T04:38:57.891Z,0
2018-03-06T04:39:57.064Z,0
2018-03-06T04:40:57.887Z,0
2018-03-06T04:41:57.645Z,0
2018-03-06T04:42:58.488Z,0
2018-03-06T04:43:57.398Z,0
2018-03-06T04:44:57.400Z,0
2018-03-06T04:45:57.700Z,0
2018-03-06T04:46:59.406Z,0
2018-03-06T04:47:57.730Z,0
2018-03-06T04:48:57.514Z,0
2018-03-06T04:49:58.024Z,0
2018-03-06T04:50:58.973Z,0
2018-03-06T04:51:57.762Z,0
2018-03-06T04:52:57.520Z,0
2018-03-06T04:54:00.658Z,0
2018-03-06T04:54:58.124Z,0
2018-03-06T04:55:58.105Z,0
2018-03-06T04:56:58.113Z,0
2018-03-06T04:58:00.020Z,0
2018-03-06T04:58:57.914Z,0
2018-03-06T04:59:58.168Z,0
2018-03-06T05:00:57.358Z,0
2018-03-06T05:01:57.944Z,0
2018-03-06T05:02:57.947Z,0
2018-03-06T05:03:57.985Z,0
2018-03-06T05:05:00.928Z,0
2018-03-06T05:05:58.250Z,0
2018-03-06T05:06:58.276Z,0
2018-03-06T05:07:57.456Z,0
2018-03-06T05:08:58.571Z,0
2018-03-06T05:09:58.301Z,0
2018-03-06T05:10:58.302Z,0
2018-03-06T05:11:59.451Z,0
2018-03-06T05:12:58.101Z,0
2018-03-06T05:13:58.084Z,0
2018-03-06T05:14:59.506Z,0
2018-03-06T05:15:58.116Z,0
2018-03-06T05:16:58.408Z,0
2018-03-06T05:17:58.161Z,0
2018-03-06T05:18:59.970Z,0
2018-03-06T05:19:58.438Z,0
2018-03-06T05:20:58.194Z,0
2018-03-06T05:22:00.776Z,0
2018-03-06T05:22:58.751Z,0
2018-03-06T05:23:58.531Z,4
2018-03-06T05:24:58.534Z,0
2018-03-06T05:25:59.865Z,4
2018-03-06T05:26:58.661Z,4
2018-03-06T05:27:58.563Z,4
2018-03-06T05:28:58.023Z,4
2018-03-06T05:30:00.722Z,4
2018-03-06T05:30:58.318Z,8
2018-03-06T05:31:58.631Z,8
2018-03-06T05:32:58.607Z,12
2018-03-06T05:33:59.869Z,12
2018-03-06T05:34:58.374Z,12
2018-03-06T05:35:58.654Z,16
2018-03-06T05:36:58.408Z,16
2018-03-06T05:38:00.320Z,16
2018-03-06T05:38:58.555Z,24
2018-03-06T05:39:58.443Z,24
2018-03-06T05:40:58.808Z,24
2018-03-06T05:41:59.004Z,28
2018-03-06T05:42:58.772Z,32
2018-03-06T05:43:58.509Z,36
2018-03-06T05:44:58.540Z,40
2018-03-06T05:46:00.018Z,44
2018-03-06T05:46:58.551Z,52
2018-03-06T05:47:58.555Z,56
2018-03-06T05:49:00.286Z,64
2018-03-06T05:49:58.882Z,68
2018-03-06T05:50:58.889Z,72
2018-03-06T05:51:58.618Z,84
2018-03-06T05:53:00.378Z,92
2018-03-06T05:53:58.987Z,104
2018-03-06T05:54:58.903Z,112
2018-03-06T05:55:58.925Z,120
2018-03-06T05:57:01.428Z,128
2018-03-06T05:57:58.683Z,140
2018-03-06T05:58:58.822Z,148
2018-03-06T05:59:58.723Z,152
2018-03-06T06:01:01.457Z,164
2018-03-06T06:01:58.759Z,180
2018-03-06T06:02:59.042Z,196
2018-03-06T06:03:59.324Z,212
2018-03-06T06:04:58.786Z,232
2018-03-06T06:05:59.082Z,248
2018-03-06T06:07:01.734Z,276
2018-03-06T06:07:58.570Z,292
2018-03-06T06:08:59.207Z,312
2018-03-06T06:09:58.587Z,336
2018-03-06T06:10:58.594Z,360
2018-03-06T06:11:58.897Z,384
2018-03-06T06:13:01.131Z,404
2018-03-06T06:13:58.882Z,420
2018-03-06T06:14:59.153Z,440
2018-03-06T06:15:59.160Z,460
2018-03-06T06:16:59.182Z,476
2018-03-06T06:17:59.206Z,492
2018-03-06T06:18:58.701Z,512
2018-03-06T06:19:59.020Z,536
2018-03-06T06:20:59.240Z,560
2018-03-06T06:21:58.746Z,576
2018-03-06T06:22:59.265Z,588
2018-03-06T06:23:59.330Z,600
2018-03-06T06:24:58.783Z,600
2018-03-06T06:25:59.143Z,604
2018-03-06T06:26:59.323Z,616
2018-03-06T06:27:59.105Z,616
2018-03-06T06:28:59.357Z,616
2018-03-06T06:29:59.112Z,620
2018-03-06T06:30:59.383Z,636
2018-03-06T06:31:59.408Z,672
2018-03-06T06:32:59.206Z,708
2018-03-06T06:33:59.166Z,744
2018-03-06T06:34:58.932Z,792
2018-03-06T06:35:58.946Z,848
2018-03-06T06:36:59.222Z,904
2018-03-06T06:37:59.484Z,956
2018-03-06T06:38:59.554Z,992
2018-03-06T06:39:59.319Z,1012
2018-03-06T06:40:59.014Z,1032
2018-03-06T06:41:59.289Z,1056
2018-03-06T06:42:59.560Z,1084
2018-03-06T06:43:58.815Z,1100
2018-03-06T06:44:59.584Z,1124
2018-03-06T06:45:59.636Z,1148
2018-03-06T06:46:59.401Z,1180
2018-03-06T06:47:59.441Z,1220
2018-03-06T06:48:59.134Z,1264
2018-03-06T06:49:59.396Z,1336
2018-03-06T06:50:59.668Z,1424
2018-03-06T06:51:59.428Z,1524
2018-03-06T06:52:59.697Z,1624
2018-03-06T06:53:59.202Z,1708
2018-03-06T06:54:59.771Z,1784
2018-03-06T06:55:59.742Z,1856
2018-03-06T06:56:59.241Z,1924
2018-03-06T06:57:59.772Z,2000
2018-03-06T06:58:59.836Z,2064
2018-03-06T06:59:59.554Z,2100
2018-03-06T07:00:59.562Z,2124
2018-03-06T07:01:59.579Z,2156
2018-03-06T07:02:59.586Z,2168
2018-03-06T07:03:59.621Z,2160
2018-03-06T07:04:59.868Z,2144
2018-03-06T07:05:59.623Z,2148
2018-03-06T07:06:59.892Z,2168
2018-03-06T07:07:59.401Z,2176
2018-03-06T07:08:59.682Z,2192
2018-03-06T07:09:59.736Z,2236
2018-03-06T07:10:59.700Z,2284
2018-03-06T07:11:59.971Z,2336
2018-03-06T07:12:59.997Z,2408
2018-03-06T07:13:59.493Z,2500
2018-03-06T07:14:59.756Z,2596
2018-03-06T07:15:59.772Z,2660
2018-03-06T07:16:59.537Z,2692
2018-03-06T07:17:59.805Z,2660
2018-03-06T07:18:59.825Z,2616
2018-03-06T07:20:00.099Z,2600
2018-03-06T07:21:00.106Z,2604
2018-03-06T07:22:00.118Z,2620
2018-03-06T07:23:00.144Z,2644
2018-03-06T07:24:00.154Z,2696
2018-03-06T07:25:00.063Z,2752
2018-03-06T07:25:59.672Z,2808
2018-03-06T07:26:59.945Z,2872
2018-03-06T07:27:59.953Z,2912
2018-03-06T07:29:00.224Z,2892
2018-03-06T07:30:00.000Z,2840
2018-03-06T07:30:59.997Z,2760
2018-03-06T07:32:00.001Z,2708
2018-03-06T07:33:00.027Z,2672
2018-03-06T07:34:00.035Z,2608
2018-03-06T07:35:00.364Z,2432
2018-03-06T07:36:00.075Z,2260
2018-03-06T07:37:00.083Z,2176
2018-03-06T07:38:00.096Z,2128
2018-03-06T07:39:00.111Z,2104
2018-03-06T07:39:59.928Z,2056
2018-03-06T07:41:00.401Z,2008
2018-03-06T07:41:59.909Z,1992
2018-03-06T07:43:00.435Z,2008
2018-03-06T07:44:00.443Z,2072
2018-03-06T07:44:59.951Z,2156
2018-03-06T07:45:59.967Z,2268
2018-03-06T07:47:00.237Z,2424
2018-03-06T07:48:00.257Z,2608
2018-03-06T07:49:00.576Z,2784
2018-03-06T07:50:00.027Z,3032
2018-03-06T07:51:00.555Z,3208
2018-03-06T07:52:00.579Z,3312
2018-03-06T07:53:00.329Z,3404
2018-03-06T07:54:00.351Z,3464
2018-03-06T07:55:00.407Z,3476
2018-03-06T07:56:00.129Z,3516
2018-03-06T07:57:00.395Z,3620
2018-03-06T07:58:00.412Z,3728
2018-03-06T07:59:00.420Z,3816
2018-03-06T08:00:00.437Z,3896
2018-03-06T08:01:00.707Z,3980
2018-03-06T08:02:00.730Z,4072
2018-03-06T08:03:00.733Z,4124
2018-03-06T08:04:00.497Z,4156
2018-03-06T08:05:00.514Z,4192
2018-03-06T08:06:00.776Z,4268
2018-03-06T08:07:00.280Z,4312
2018-03-06T08:08:00.552Z,4340
2018-03-06T08:09:00.064Z,4372
2018-03-06T08:10:00.588Z,4392
2018-03-06T08:11:00.346Z,4372
2018-03-06T08:12:01.002Z,4360
2018-03-06T08:13:00.888Z,4340
2018-03-06T08:14:00.902Z,4364
2018-03-06T08:15:00.679Z,4388
2018-03-06T08:16:00.440Z,4428
2018-03-06T08:17:00.443Z,4504
2018-03-06T08:18:00.456Z,4672
2018-03-06T08:19:01.005Z,4972
2018-03-06T08:20:00.999Z,5248
2018-03-06T08:21:01.014Z,5360
2018-03-06T08:22:01.116Z,5360
2018-03-06T08:23:01.040Z,5336
2018-03-06T08:24:01.275Z,5380
2018-03-06T08:25:01.059Z,5436
2018-03-06T08:26:01.082Z,5480
2018-03-06T08:27:00.900Z,5524
2018-03-06T08:28:01.115Z,5552
2018-03-06T08:29:01.131Z,5504
2018-03-06T08:30:00.886Z,5400
2018-03-06T08:31:01.180Z,5304
2018-03-06T08:32:00.669Z,5236
2018-03-06T08:33:01.213Z,5172
2018-03-06T08:34:01.209Z,5080
2018-03-06T08:35:00.972Z,5000
2018-03-06T08:36:00.996Z,5028
2018-03-06T08:37:01.031Z,5068
2018-03-06T08:38:01.277Z,5112
2018-03-06T08:39:01.282Z,5144
2018-03-06T08:40:01.295Z,5064
2018-03-06T08:41:01.086Z,4932
2018-03-06T08:42:01.376Z,4792
2018-03-06T08:43:00.843Z,4700
2018-03-06T08:44:01.361Z,4648
2018-03-06T08:45:00.867Z,4588
2018-03-06T08:46:00.887Z,4524
2018-03-06T08:47:01.416Z,4492
2018-03-06T08:48:01.420Z,4496
2018-03-06T08:49:01.211Z,4544
2018-03-06T08:50:01.203Z,4592
2018-03-06T08:51:01.228Z,4604
2018-03-06T08:52:01.587Z,4724
2018-03-06T08:53:01.251Z,5068
2018-03-06T08:54:01.516Z,5460
2018-03-06T08:55:01.618Z,5860
2018-03-06T08:56:01.554Z,6156
2018-03-06T08:57:01.722Z,6432
2018-03-06T08:58:01.328Z,6624
2018-03-06T08:59:01.346Z,6704
2018-03-06T09:00:01.357Z,6728
2018-03-06T09:01:01.142Z,6784
2018-03-06T09:02:01.389Z,6864
2018-03-06T09:03:01.658Z,6892
2018-03-06T09:04:01.680Z,7028
2018-03-06T09:05:01.182Z,7344
2018-03-06T09:06:01.197Z,7636
2018-03-06T09:07:01.769Z,7668
2018-03-06T09:08:01.480Z,7468
2018-03-06T09:09:01.502Z,7360
2018-03-06T09:10:01.772Z,7332
2018-03-06T09:11:01.540Z,7352
2018-03-06T09:12:01.595Z,7312
2018-03-06T09:13:01.303Z,7236
2018-03-06T09:14:01.572Z,7012
2018-03-06T09:15:01.844Z,6816
2018-03-06T09:16:01.354Z,6756
2018-03-06T09:17:01.366Z,6760
2018-03-06T09:18:01.637Z,6900
2018-03-06T09:19:01.654Z,6912
2018-03-06T09:20:01.152Z,6752
2018-03-06T09:21:01.929Z,6772
2018-03-06T09:22:01.959Z,6956
2018-03-06T09:23:01.958Z,7188
2018-03-06T09:24:01.974Z,7192
2018-03-06T09:25:01.597Z,7188
2018-03-06T09:26:02.023Z,7324
2018-03-06T09:27:01.827Z,7392
2018-03-06T09:28:01.800Z,7504
2018-03-06T09:29:02.070Z,7684
2018-03-06T09:30:02.104Z,7984
2018-03-06T09:31:01.844Z,8336
2018-03-06T09:32:01.625Z,8620
2018-03-06T09:33:01.654Z,8732
2018-03-06T09:34:01.638Z,8964
2018-03-06T09:35:01.909Z,9288
2018-03-06T09:36:01.669Z,9424
2018-03-06T09:37:02.402Z,9616
2018-03-06T09:38:02.200Z,9696
2018-03-06T09:39:01.478Z,9928
2018-03-06T09:40:01.995Z,10172
2018-03-06T09:41:02.007Z,10916
2018-03-06T09:42:01.612Z,11344
2018-03-06T09:43:02.300Z,11448
2018-03-06T09:44:01.808Z,11516
2018-03-06T09:45:02.073Z,11140
2018-03-06T09:46:01.832Z,11312
2018-03-06T09:47:02.420Z,11372
2018-03-06T09:48:02.127Z,11128
2018-03-06T09:49:02.137Z,10464
2018-03-06T09:50:01.647Z,9684
2018-03-06T09:51:01.915Z,8948
2018-03-06T09:52:01.990Z,8144
2018-03-06T09:53:02.208Z,7736
2018-03-06T09:54:01.712Z,7464
2018-03-06T09:55:02.496Z,7168
2018-03-06T09:56:02.504Z,7356
2018-03-06T09:57:02.273Z,6944
2018-03-06T09:58:02.556Z,6660
2018-03-06T09:59:02.313Z,6444
2018-03-06T10:00:02.070Z,6312
2018-03-06T10:01:02.348Z,6088
2018-03-06T10:02:02.616Z,5564
2018-03-06T10:03:02.430Z,5368
2018-03-06T10:04:02.400Z,5292
2018-03-06T10:05:02.164Z,5068
2018-03-06T10:06:02.452Z,4860
2018-03-06T10:07:02.746Z,4712
2018-03-06T10:08:02.465Z,4536
2018-03-06T10:09:01.970Z,4412
2018-03-06T10:10:02.746Z,4296
2018-03-06T10:11:02.769Z,4168
2018-03-06T10:12:02.529Z,4160
2018-03-06T10:13:02.799Z,4264
2018-03-06T10:14:02.558Z,4236
2018-03-06T10:15:02.321Z,4100
2018-03-06T10:16:02.340Z,4064
2018-03-06T10:17:02.413Z,4064
2018-03-06T10:18:02.619Z,4076
2018-03-06T10:19:02.918Z,4092
2018-03-06T10:20:02.927Z,4020
2018-03-06T10:21:02.948Z,3960
2018-03-06T10:22:02.747Z,3924
2018-03-06T10:23:02.711Z,3880
2018-03-06T10:24:02.468Z,3816
2018-03-06T10:25:02.746Z,3732
2018-03-06T10:26:02.769Z,3696
2018-03-06T10:27:02.265Z,3632
2018-03-06T10:28:02.821Z,3588
2018-03-06T10:29:03.056Z,3540
2018-03-06T10:30:02.822Z,3512
2018-03-06T10:31:02.595Z,3436
2018-03-06T10:32:02.856Z,3396
2018-03-06T10:33:02.362Z,3440
2018-03-06T10:34:03.213Z,3480
2018-03-06T10:35:02.894Z,3552
2018-03-06T10:36:02.917Z,3620
2018-03-06T10:37:02.727Z,3668
2018-03-06T10:38:03.200Z,3716
2018-03-06T10:39:03.218Z,3780
2018-03-06T10:40:02.979Z,3844
2018-03-06T10:41:02.991Z,3884
2018-03-06T10:42:03.106Z,3964
2018-03-06T10:43:03.033Z,4036
2018-03-06T10:44:03.299Z,4088
2018-03-06T10:45:03.312Z,4172
2018-03-06T10:46:03.326Z,4276
2018-03-06T10:47:03.129Z,4368
2018-03-06T10:48:02.850Z,4320
2018-03-06T10:49:02.609Z,4340
2018-03-06T10:50:03.385Z,4376
2018-03-06T10:51:03.145Z,4416
2018-03-06T10:52:02.703Z,4460
2018-03-06T10:53:03.175Z,4468
2018-03-06T10:54:03.450Z,4524
2018-03-06T10:55:03.469Z,4532
2018-03-06T10:56:03.487Z,4488
2018-03-06T10:57:03.493Z,4432
2018-03-06T10:58:03.260Z,4472
2018-03-06T10:59:03.270Z,4464
2018-03-06T11:00:03.032Z,4356
2018-03-06T11:01:03.058Z,4276
2018-03-06T11:02:03.568Z,4188
2018-03-06T11:03:03.334Z,4308
2018-03-06T11:04:03.351Z,4464
2018-03-06T11:05:03.363Z,4520
2018-03-06T11:06:03.380Z,4556
2018-03-06T11:07:03.441Z,4532
2018-03-06T11:08:03.402Z,4500
2018-03-06T11:09:03.429Z,4504
2018-03-06T11:10:03.445Z,4620
2018-03-06T11:11:03.479Z,4724
2018-03-06T11:12:03.468Z,4836
2018-03-06T11:13:03.761Z,4868
2018-03-06T11:14:03.508Z,4856
2018-03-06T11:15:03.820Z,4840
2018-03-06T11:16:03.539Z,4768
2018-03-06T11:17:03.295Z,4836
2018-03-06T11:18:03.825Z,4932
2018-03-06T11:19:03.586Z,5060
2018-03-06T11:20:03.870Z,5200
2018-03-06T11:21:03.617Z,5332
2018-03-06T11:22:03.907Z,5404
2018-03-06T11:23:03.393Z,5372
2018-03-06T11:24:03.926Z,5388
2018-03-06T11:25:03.987Z,5652
2018-03-06T11:26:03.696Z,5716
2018-03-06T11:27:03.707Z,5552
2018-03-06T11:28:03.508Z,5468
2018-03-06T11:29:04.002Z,5504
2018-03-06T11:30:03.499Z,5580
2018-03-06T11:31:03.770Z,5672
2018-03-06T11:32:03.535Z,5716
2018-03-06T11:33:04.073Z,5588
2018-03-06T11:34:03.566Z,5388
2018-03-06T11:35:04.094Z,5464
2018-03-06T11:36:03.854Z,5456
2018-03-06T11:37:03.872Z,5520
2018-03-06T11:38:03.630Z,5500
2018-03-06T11:39:04.155Z,5380
2018-03-06T11:40:03.982Z,5360
2018-03-06T11:41:03.941Z,5776
2018-03-06T11:42:03.968Z,5684
2018-03-06T11:43:03.712Z,5608
2018-03-06T11:44:03.726Z,5796
2018-03-06T11:45:04.012Z,5912
2018-03-06T11:46:04.271Z,6032
2018-03-06T11:47:03.773Z,6036
2018-03-06T11:48:04.044Z,5952
2018-03-06T11:49:04.062Z,6076
2018-03-06T11:50:04.077Z,5916
2018-03-06T11:51:03.593Z,5900
2018-03-06T11:52:04.111Z,5932
2018-03-06T11:53:04.383Z,6004
2018-03-06T11:54:04.404Z,5904
2018-03-06T11:55:04.219Z,5716
2018-03-06T11:56:03.977Z,6064
2018-03-06T11:57:04.450Z,6056
2018-03-06T11:58:04.211Z,5864
2018-03-06T11:59:04.224Z,5636
2018-03-06T12:00:04.291Z,5664
2018-03-06T12:01:04.263Z,5852
2018-03-06T12:02:04.730Z,5604
2018-03-06T12:03:04.286Z,5512
2018-03-06T12:04:04.340Z,5608
2018-03-06T12:05:04.322Z,5324
2018-03-06T12:06:04.341Z,5092
2018-03-06T12:07:04.364Z,5108
2018-03-06T12:08:04.380Z,5040
2018-03-06T12:09:04.150Z,5188
2018-03-06T12:10:04.524Z,5108
2018-03-06T12:11:04.192Z,5132
2018-03-06T12:12:04.489Z,5340
2018-03-06T12:13:04.712Z,5436
2018-03-06T12:14:04.474Z,5368
2018-03-06T12:15:04.488Z,5384
2018-03-06T12:16:04.244Z,5500
2018-03-06T12:17:04.540Z,5800
2018-03-06T12:18:04.797Z,5964
2018-03-06T12:19:04.548Z,6088
2018-03-06T12:20:04.571Z,6128
2018-03-06T12:21:04.603Z,6072
2018-03-06T12:22:04.857Z,6368
2018-03-06T12:23:04.355Z,6840
2018-03-06T12:24:04.634Z,7044
2018-03-06T12:25:04.950Z,6932
2018-03-06T12:26:04.927Z,6736
2018-03-06T12:27:04.674Z,7128
2018-03-06T12:28:04.698Z,7360
2018-03-06T12:29:04.961Z,7556
2018-03-06T12:30:04.841Z,7688
2018-03-06T12:31:05.023Z,7644
2018-03-06T12:32:05.039Z,7664
2018-03-06T12:33:05.048Z,7840
2018-03-06T12:34:05.050Z,7872
2018-03-06T12:35:05.062Z,7856
2018-03-06T12:36:04.574Z,7740
2018-03-06T12:37:04.843Z,7660
2018-03-06T12:38:05.124Z,7816
2018-03-06T12:39:04.367Z,7864
2018-03-06T12:40:04.940Z,7872
2018-03-06T12:41:04.911Z,7896
2018-03-06T12:42:04.670Z,7876
2018-03-06T12:43:05.203Z,7880
2018-03-06T12:44:04.960Z,7896
2018-03-06T12:45:04.970Z,7880
2018-03-06T12:46:05.241Z,7756
2018-03-06T12:47:05.008Z,7896
2018-03-06T12:48:05.023Z,7988
2018-03-06T12:49:05.041Z,8024
2018-03-06T12:50:05.062Z,8124
2018-03-06T12:51:05.079Z,8384
2018-03-06T12:52:04.580Z,8512
2018-03-06T12:53:05.107Z,8628
2018-03-06T12:54:04.618Z,8644
2018-03-06T12:55:05.108Z,8780
2018-03-06T12:56:05.166Z,8836
2018-03-06T12:57:04.926Z,8952
2018-03-06T12:58:04.684Z,9084
2018-03-06T12:59:04.958Z,9196
2018-03-06T13:00:04.977Z,9268
2018-03-06T13:01:05.496Z,9296
2018-03-06T13:02:05.005Z,9312
2018-03-06T13:03:05.546Z,9408
2018-03-06T13:04:05.546Z,9384
2018-03-06T13:05:05.060Z,9312
2018-03-06T13:06:05.087Z,9400
2018-03-06T13:07:05.087Z,9404
2018-03-06T13:08:05.115Z,9292
2018-03-06T13:09:04.875Z,9220
2018-03-06T13:10:05.139Z,9228
2018-03-06T13:11:05.155Z,9160
2018-03-06T13:12:05.223Z,8908
2018-03-06T13:13:04.936Z,8500
2018-03-06T13:14:05.467Z,8432
2018-03-06T13:15:05.500Z,8248
2018-03-06T13:16:05.499Z,7992
2018-03-06T13:17:05.260Z,7960
2018-03-06T13:18:05.788Z,8072
2018-03-06T13:19:05.554Z,7880
2018-03-06T13:20:05.579Z,7320
2018-03-06T13:21:05.792Z,7352
2018-03-06T13:22:05.596Z,7964
2018-03-06T13:23:05.614Z,8572
2018-03-06T13:24:05.889Z,8860
2018-03-06T13:25:05.399Z,9108
2018-03-06T13:26:05.666Z,9428
2018-03-06T13:27:06.006Z,9620
2018-03-06T13:28:05.955Z,9668
2018-03-06T13:29:05.981Z,9796
2018-03-06T13:30:05.229Z,9996
2018-03-06T13:31:05.756Z,10188
2018-03-06T13:32:06.024Z,9856
2018-03-06T13:33:05.788Z,9644
2018-03-06T13:34:05.898Z,9792
2018-03-06T13:35:06.076Z,9772
2018-03-06T13:36:05.845Z,9764
2018-03-06T13:37:05.866Z,9768
2018-03-06T13:38:06.127Z,10024
2018-03-06T13:39:06.145Z,10452
2018-03-06T13:40:06.182Z,10672
2018-03-06T13:41:06.185Z,11180
2018-03-06T13:42:06.096Z,10864
2018-03-06T13:43:06.255Z,12260
2018-03-06T13:44:05.721Z,12448
2018-03-06T13:45:05.990Z,12308
2018-03-06T13:46:06.012Z,12408
2018-03-06T13:47:06.292Z,12600
2018-03-06T13:48:06.314Z,12912
2018-03-06T13:49:06.318Z,12832
2018-03-06T13:50:06.386Z,12636
2018-03-06T13:51:05.856Z,12488
2018-03-06T13:52:06.121Z,12516
2018-03-06T13:53:06.166Z,12796
2018-03-06T13:54:06.413Z,13188